Time;durP1;ratioP1;P1;durP2;ratioP2;P2;SDS_P1;SDS_P2;PMS_P1;PMS_P2;Temp;Humidity;BMP_temperature;BMP_pressure;BME280_temperature;BME280_humidity;BME280_pressure;Samples;Min_cycle;Max_cycle;Signal;HPM_P1;HPM_P2
2022/06/30 00:00:26;;;;;;;;;;;;;;;29.39;35.35;99926.06;5381417;32;34252;-92
2022/06/30 00:03:29;;;;;;;;;;;;;;;29.26;36.03;99926.78;5386947;32;35293;-91
2022/06/30 00:06:31;;;;;;;;;;;;;;;28.58;37.24;99931.53;5373874;32;35589;-81
2022/06/30 00:09:34;;;;;;;;;;;;;;;28.61;37.21;99927.63;5374294;32;34796;-80
2022/06/30 00:12:38;;;;;;;;;;;;;;;28.58;37.18;99920.72;5389342;32;34346;-90
2022/06/30 00:15:43;;;;;;;;;;;;;;;28.99;36.38;99927.53;5361838;32;43707;-89
2022/06/30 00:18:45;;;;;;;;;;;;;;;29.72;34.86;99928.28;5390902;32;33153;-91
2022/06/30 00:21:47;;;;;;;;;;;;;;;29.12;35.87;99923.09;5383863;32;34361;-79
2022/06/30 00:24:49;;;;;;;;;;;;;;;28.64;36.78;99931.81;5375242;32;35271;-80
2022/06/30 00:27:52;;;;;;;;;;;;;;;28.31;37.71;99932.19;5395827;32;34171;-86
2022/06/30 00:30:54;;;;;;;;;;;;;;;28.65;37.29;99925.37;5374397;32;34403;-91
2022/06/30 00:33:56;;;;;;;;;;;;;;;29.25;36.09;99933.22;5388338;32;34353;-81
2022/06/30 00:36:58;;;;;;;;;;;;;;;28.70;37.31;99926.50;5377943;32;34749;-92
2022/06/30 00:40:03;;;;;;;;;;;;;;;29.44;36.01;99922.81;5392858;32;34589;-82
2022/06/30 00:43:05;;;;;;;;;;;;;;;29.64;35.61;99929.25;5368964;32;32862;-82
2022/06/30 00:46:07;;;;;;;;;;;;;;;29.16;36.33;99933.53;5375552;32;44598;-89
2022/06/30 00:49:09;;;;;;;;;;;;;;;28.74;37.50;99933.22;5392206;32;34027;-91
2022/06/30 00:52:11;;;;;;;;;;;;;;;29.17;36.60;99925.22;5373642;32;34881;-92
2022/06/30 00:55:13;;;;;;;;;;;;;;;29.32;36.51;99926.00;5380782;32;34343;-81
2022/06/30 00:58:16;;;;;;;;;;;;;;;28.18;39.40;99931.97;5379418;32;34661;-81
2022/06/30 01:01:18;;;;;;;;;;;;;;;28.14;41.43;99923.38;5382664;32;35412;-81
2022/06/30 01:04:20;;;;;;;;;;;;;;;27.93;43.44;99928.66;5387090;32;35462;-92
2022/06/30 01:07:23;;;;;;;;;;;;;;;27.54;44.62;99930.47;5379693;32;34434;-92
2022/06/30 01:13:46;;;;;;;;;;;;;;;28.23;42.76;99916.06;5380725;32;42792;-79
2022/06/30 01:16:48;;;;;;;;;;;;;;;29.21;40.69;99912.16;5361639;32;35500;-90
2022/06/30 01:19:54;;;;;;;;;;;;;;;27.59;43.59;99918.31;5376338;32;33716;-90
2022/06/30 01:22:56;;;;;;;;;;;;;;;26.70;46.15;99924.06;5386599;32;34106;-92
2022/06/30 01:25:59;;;;;;;;;;;;;;;27.99;43.14;99917.97;5379238;32;35375;-79
2022/06/30 01:29:05;;;;;;;;;;;;;;;27.62;43.74;99920.62;5398917;32;34230;-91
2022/06/30 01:32:07;;;;;;;;;;;;;;;27.22;44.74;99919.94;5392280;32;43965;-82
2022/06/30 01:35:09;;;;;;;;;;;;;;;26.95;45.17;99918.53;5366664;32;34461;-92
2022/06/30 01:38:11;;;;;;;;;;;;;;;27.25;44.28;99919.59;5387414;32;35844;-93
2022/06/30 01:41:15;;;;;;;;;;;;;;;28.56;41.11;99916.53;5379671;32;35341;-92
2022/06/30 01:44:17;;;;;;;;;;;;;;;28.49;41.23;99927.25;5367352;32;35304;-91
2022/06/30 01:47:19;;;;;;;;;;;;;;;27.22;44.16;99938.81;5380876;32;34855;-81
2022/06/30 01:50:25;;;;;;;;;;;;;;;27.40;43.66;99933.97;5389330;32;36865;-90
2022/06/30 01:53:27;;;;;;;;;;;;;;;27.00;44.28;99935.88;5391167;32;34501;-93
2022/06/30 01:56:29;;;;;;;;;;;;;;;27.83;42.63;99937.03;5372450;32;34836;-92
2022/06/30 01:59:31;;;;;;;;;;;;;;;28.35;40.98;99933.53;5391056;32;34346;-91
2022/06/30 02:02:34;;;;;;;;;;;;;;;27.92;41.15;99944.03;5387269;32;34915;-79
2022/06/30 02:05:36;;;;;;;;;;;;;;;27.07;42.84;99944.12;5353171;32;35081;-80
2022/06/30 02:08:38;;;;;;;;;;;;;;;27.21;42.55;99945.22;5393887;32;44398;-90
2022/06/30 02:11:40;;;;;;;;;;;;;;;26.77;43.49;99948.44;5374552;32;35284;-91
2022/06/30 02:14:43;;;;;;;;;;;;;;;26.96;43.39;99947.19;5370364;32;34347;-80
2022/06/30 02:17:45;;;;;;;;;;;;;;;27.28;42.51;99951.59;5370045;32;35233;-80
2022/06/30 02:20:47;;;;;;;;;;;;;;;27.50;42.00;99941.81;5386581;32;34233;-80
2022/06/30 02:23:51;;;;;;;;;;;;;;;28.03;40.56;99940.91;5388647;32;34973;-79
2022/06/30 02:26:53;;;;;;;;;;;;;;;27.17;42.83;99954.69;5366444;32;35529;-81
2022/06/30 02:29:55;;;;;;;;;;;;;;;27.89;41.19;99955.22;5386656;32;35312;-86
2022/06/30 02:32:57;;;;;;;;;;;;;;;27.91;40.96;99957.72;5380044;32;35018;-90
2022/06/30 02:35:59;;;;;;;;;;;;;;;27.34;42.36;99958.13;5391595;32;35606;-91
2022/06/30 02:39:01;;;;;;;;;;;;;;;26.87;43.75;99965.28;5377358;32;35862;-92
2022/06/30 02:42:03;;;;;;;;;;;;;;;26.64;44.01;99957.09;5384435;32;35263;-89
2022/06/30 02:45:05;;;;;;;;;;;;;;;26.66;44.12;99952.38;5379106;32;34473;-85
2022/06/30 02:48:07;;;;;;;;;;;;;;;26.86;44.09;99960.91;5383676;32;44728;-90
2022/06/30 02:51:10;;;;;;;;;;;;;;;27.04;43.55;99954.38;5383817;32;35574;-91
2022/06/30 02:54:12;;;;;;;;;;;;;;;26.93;43.79;99956.47;5390057;32;34309;-91
2022/06/30 02:57:14;;;;;;;;;;;;;;;26.69;44.59;99948.50;5401925;32;35341;-92
2022/06/30 03:00:16;;;;;;;;;;;;;;;27.04;43.83;99949.00;5375604;32;34681;-87
2022/06/30 03:03:18;;;;;;;;;;;;;;;26.61;44.57;99956.63;5382518;32;35628;-91
2022/06/30 03:06:20;;;;;;;;;;;;;;;26.44;45.43;99964.72;5374475;32;34430;-81
2022/06/30 03:09:23;;;;;;;;;;;;;;;26.67;44.95;99961.31;5377648;32;32833;-91
2022/06/30 03:12:25;;;;;;;;;;;;;;;26.32;45.04;99966.06;5399235;32;34433;-82
2022/06/30 03:15:28;;;;;;;;;;;;;;;26.64;44.01;99961.66;5369578;32;34331;-81
2022/06/30 03:18:30;;;;;;;;;;;;;;;26.39;44.72;99974.31;5393254;32;34922;-93
2022/06/30 03:21:35;;;;;;;;;;;;;;;27.62;41.75;99964.66;5393037;32;35354;-84
2022/06/30 03:24:40;;;;;;;;;;;;;;;27.07;42.86;99968.41;5386845;32;45364;-80
2022/06/30 03:27:42;;;;;;;;;;;;;;;27.76;41.12;99973.91;5381067;32;35574;-91
2022/06/30 03:30:47;;;;;;;;;;;;;;;26.69;43.56;99981.69;5391844;32;33368;-93
2022/06/30 03:33:49;;;;;;;;;;;;;;;27.43;42.16;99986.72;5377821;32;34260;-81
2022/06/30 03:36:51;;;;;;;;;;;;;;;26.33;44.47;99986.59;5389329;32;34973;-92
2022/06/30 03:39:53;;;;;;;;;;;;;;;26.80;43.37;99985.03;5379536;32;34260;-82
2022/06/30 03:42:56;;;;;;;;;;;;;;;26.52;43.60;99988.13;5375099;32;34073;-87
2022/06/30 03:45:59;;;;;;;;;;;;;;;26.86;43.02;99985.16;5381751;32;34678;-82
2022/06/30 03:49:01;;;;;;;;;;;;;;;26.68;44.00;100001.56;5378196;32;32914;-83
2022/06/30 03:52:03;;;;;;;;;;;;;;;26.28;45.24;99998.94;5374502;32;35666;-92
2022/06/30 03:55:05;;;;;;;;;;;;;;;26.83;44.05;99998.12;5384864;32;34412;-81
2022/06/30 03:58:08;;;;;;;;;;;;;;;26.46;44.91;100003.13;5381159;32;44564;-93
2022/06/30 04:01:09;;;;;;;;;;;;;;;27.45;42.61;100003.59;5428303;32;34309;-93
2022/06/30 04:04:12;;;;;;;;;;;;;;;27.80;42.00;100004.91;5392333;32;35093;-82
2022/06/30 04:07:14;;;;;;;;;;;;;;;27.74;42.21;100008.31;5372862;32;33815;-91
2022/06/30 04:10:18;;;;;;;;;;;;;;;27.19;43.29;100009.31;5384763;32;34650;-91
2022/06/30 04:13:20;;;;;;;;;;;;;;;27.35;42.79;100009.22;5368330;32;34543;-80
2022/06/30 04:16:22;;;;;;;;;;;;;;;26.78;44.21;100008.59;5352346;32;35171;-88
2022/06/30 04:19:24;;;;;;;;;;;;;;;27.39;42.75;100002.44;5398156;32;34221;-82
2022/06/30 04:22:26;;;;;;;;;;;;;;;27.05;43.48;100010.00;5387702;32;35974;-82
2022/06/30 04:25:28;;;;;;;;;;;;;;;27.99;41.22;100011.66;5375327;32;34518;-81
2022/06/30 04:28:30;;;;;;;;;;;;;;;28.51;40.11;99998.19;5382897;32;34576;-90
2022/06/30 04:34:53;;;;;;;;;;;;;;;27.71;41.49;100011.38;5382311;32;35326;-90
2022/06/30 04:37:59;;;;;;;;;;;;;;;29.44;37.88;100012.97;5383343;32;35760;-80
2022/06/30 04:44:22;;;;;;;;;;;;;;;27.96;41.09;100002.06;5381212;32;34284;-88
2022/06/30 04:47:24;;;;;;;;;;;;;;;30.01;36.70;99997.69;5396886;32;34280;-91
2022/06/30 04:50:26;;;;;;;;;;;;;;;30.12;36.54;100002.63;5363344;32;35369;-81
2022/06/30 04:53:28;;;;;;;;;;;;;;;29.30;38.23;100003.00;5389009;32;34164;-82
2022/06/30 04:56:33;;;;;;;;;;;;;;;29.00;38.76;100002.22;5378376;32;34592;-82
2022/06/30 04:59:35;;;;;;;;;;;;;;;29.49;37.40;100002.38;5384986;32;34716;-90
2022/06/30 05:02:37;;;;;;;;;;;;;;;30.74;34.16;99996.41;5377238;32;43291;-82
2022/06/30 05:05:39;;;;;;;;;;;;;;;31.27;33.35;99992.09;5372612;32;34224;-89
2022/06/30 05:08:42;;;;;;;;;;;;;;;31.11;33.46;99997.84;5387180;32;34317;-81
2022/06/30 05:11:44;;;;;;;;;;;;;;;31.99;32.26;99996.00;5384421;32;35656;-80
2022/06/30 05:14:46;;;;;;;;;;;;;;;32.22;31.66;99994.75;5362874;32;35905;-73
2022/06/30 05:17:48;;;;;;;;;;;;;;;32.88;31.05;99995.50;5354317;32;34306;-76
2022/06/30 05:20:52;;;;;;;;;;;;;;;32.11;32.53;99996.22;5382268;32;35489;-79
2022/06/30 05:27:15;;;;;;;;;;;;;;;33.98;29.11;99984.44;5360240;32;43910;-76
2022/06/30 05:30:17;;;;;;;;;;;;;;;32.99;30.10;99991.28;5373831;32;36605;-81
2022/06/30 05:33:20;;;;;;;;;;;;;;;32.74;30.97;99984.84;5358785;32;33423;-71
2022/06/30 05:36:22;;;;;;;;;;;;;;;32.49;31.46;100001.03;5376231;32;33181;-78
2022/06/30 05:39:24;;;;;;;;;;;;;;;33.76;29.21;99991.31;5363257;32;34266;-74
2022/06/30 05:42:26;;;;;;;;;;;;;;;35.11;26.67;99989.62;5369842;32;35039;-77
2022/06/30 05:45:28;;;;;;;;;;;;;;;35.34;26.21;99988.88;5362183;32;37264;-76
2022/06/30 05:48:30;;;;;;;;;;;;;;;33.51;28.91;99994.81;5361091;32;36985;-74
2022/06/30 05:51:32;;;;;;;;;;;;;;;34.45;27.47;100001.25;5377120;32;34149;-70
2022/06/30 05:54:34;;;;;;;;;;;;;;;35.53;25.72;99997.88;5358903;32;34300;-75
2022/06/30 05:58:06;;;;;;;;;;;;;;;36.43;24.20;99991.41;5372617;32;34169;-74
2022/06/30 06:01:07;;;;;;;;;;;;;;;36.33;24.18;99998.28;5359459;32;34232;-74
2022/06/30 06:04:09;;;;;;;;;;;;;;;34.55;26.21;99990.66;5361526;32;34701;-69
2022/06/30 06:07:11;;;;;;;;;;;;;;;33.76;27.49;99986.69;5378152;32;35718;-79
2022/06/30 06:10:14;;;;;;;;;;;;;;;34.10;26.52;99998.19;5367241;32;36278;-75
2022/06/30 06:13:16;;;;;;;;;;;;;;;35.74;24.42;99999.25;5374728;32;35628;-79
2022/06/30 06:16:17;;;;;;;;;;;;;;;34.60;25.12;100004.47;5349819;32;34497;-80
2022/06/30 06:19:21;;;;;;;;;;;;;;;35.27;24.92;99988.97;5382468;32;35260;-80
2022/06/30 06:22:24;;;;;;;;;;;;;;;34.56;26.12;99997.78;5370664;32;35620;-84
2022/06/30 06:25:26;;;;;;;;;;;;;;;35.38;24.23;99990.09;5375504;32;35255;-79
2022/06/30 06:31:48;;;;;;;;;;;;;;;36.13;23.74;99991.50;5366627;32;34389;-78
2022/06/30 06:34:50;;;;;;;;;;;;;;;37.37;21.63;99983.84;5375785;32;33060;-71
2022/06/30 06:37:53;;;;;;;;;;;;;;;36.52;21.38;99996.31;5360088;32;34428;-71
2022/06/30 06:40:56;;;;;;;;;;;;;;;39.05;17.75;99977.44;5355580;32;35319;-75
2022/06/30 06:43:59;;;;;;;;;;;;;;;37.27;19.39;99991.84;5374067;32;35062;-71
2022/06/30 06:47:01;;;;;;;;;;;;;;;37.32;19.65;99986.47;5359155;32;35823;-73
2022/06/30 06:50:04;;;;;;;;;;;;;;;36.93;20.42;99974.47;5365754;32;34325;-89
2022/06/30 06:53:09;;;;;;;;;;;;;;;38.98;17.80;99974.91;5373874;32;44467;-89
2022/06/30 06:56:14;;;;;;;;;;;;;;;39.34;17.18;99981.62;5376831;32;35040;-73
2022/06/30 06:59:16;;;;;;;;;;;;;;;39.72;16.77;99974.34;5360137;32;34545;-92
2022/06/30 07:02:18;;;;;;;;;;;;;;;40.55;15.96;99982.97;5369294;32;35865;-72
2022/06/30 07:05:20;;;;;;;;;;;;;;;40.83;15.70;99979.78;5376184;32;34188;-70
2022/06/30 07:08:22;;;;;;;;;;;;;;;40.69;15.34;99967.59;5372625;32;35669;-84
2022/06/30 07:11:24;;;;;;;;;;;;;;;39.29;16.47;99967.84;5371888;32;34434;-77
2022/06/30 07:14:26;;;;;;;;;;;;;;;40.08;15.84;99969.97;5345919;32;35961;-72
2022/06/30 07:17:34;;;;;;;;;;;;;;;39.23;16.47;99963.41;5361065;32;35513;-69
2022/06/30 07:20:36;;;;;;;;;;;;;;;39.33;16.61;99962.66;5358046;32;33086;-75
2022/06/30 07:23:39;;;;;;;;;;;;;;;37.55;18.79;99967.22;5368250;32;44599;-77
2022/06/30 07:26:43;;;;;;;;;;;;;;;39.18;16.94;99957.84;5374673;32;35383;-76
2022/06/30 07:29:45;;;;;;;;;;;;;;;40.19;15.95;99962.59;5364606;32;33852;-81
2022/06/30 07:32:47;;;;;;;;;;;;;;;40.19;15.87;99962.59;5372024;32;35569;-69
2022/06/30 07:35:50;;;;;;;;;;;;;;;38.85;16.72;99939.56;5360729;32;36925;-75
2022/06/30 07:38:52;;;;;;;;;;;;;;;39.28;16.36;99949.69;5372849;32;34181;-74
2022/06/30 07:41:55;;;;;;;;;;;;;;;39.50;16.46;99947.72;5364960;32;34928;-69
2022/06/30 07:44:57;;;;;;;;;;;;;;;39.66;16.23;99948.69;5357484;32;34239;-79
2022/06/30 07:47:59;;;;;;;;;;;;;;;40.72;15.28;99936.78;5376911;32;36612;-72
2022/06/30 07:51:01;;;;;;;;;;;;;;;40.32;15.81;99943.72;5365079;32;34424;-77
2022/06/30 07:54:03;;;;;;;;;;;;;;;41.44;14.70;99940.59;5379376;32;34171;-80
2022/06/30 07:57:05;;;;;;;;;;;;;;;41.02;15.08;99943.50;5366721;32;35282;-75
2022/06/30 08:00:27;;;;;;;;;;;;;;;41.37;14.57;99929.84;5370444;32;36743;-81
2022/06/30 08:03:29;;;;;;;;;;;;;;;40.92;15.07;99938.81;5369742;32;35111;-76
2022/06/30 08:06:31;;;;;;;;;;;;;;;40.43;15.68;99936.31;5364247;32;34353;-77
2022/06/30 08:09:33;;;;;;;;;;;;;;;38.64;17.62;99924.72;5366028;32;36829;-77
2022/06/30 08:12:35;;;;;;;;;;;;;;;39.95;16.52;99940.97;5363608;32;35718;-79
2022/06/30 08:15:38;;;;;;;;;;;;;;;42.02;14.59;99921.84;5354298;32;46102;-79
2022/06/30 08:18:40;;;;;;;;;;;;;;;41.39;14.97;99927.63;5367709;32;35992;-77
2022/06/30 08:21:42;;;;;;;;;;;;;;;40.82;15.48;99938.72;5365967;32;35276;-77
2022/06/30 08:24:47;;;;;;;;;;;;;;;41.67;14.82;99923.50;5371294;32;34180;-73
2022/06/30 08:27:49;;;;;;;;;;;;;;;41.07;15.65;99925.06;5356699;32;35612;-71
2022/06/30 08:30:51;;;;;;;;;;;;;;;41.58;14.76;99913.28;5374586;32;35431;-73
2022/06/30 08:33:56;;;;;;;;;;;;;;;42.26;13.90;99919.34;5351056;32;34401;-75
2022/06/30 08:36:58;;;;;;;;;;;;;;;42.34;13.01;99916.00;5373987;32;34287;-83
2022/06/30 08:43:23;;;;;;;;;;;;;;;41.96;13.58;99922.94;5362042;32;34369;-72
2022/06/30 08:46:25;;;;;;;;;;;;;;;42.07;13.52;99918.25;5378046;32;35559;-71
2022/06/30 08:49:28;;;;;;;;;;;;;;;41.95;13.68;99914.97;5367706;32;33586;-85
2022/06/30 08:52:33;;;;;;;;;;;;;;;42.25;13.33;99916.84;5375216;32;34242;-79
2022/06/30 08:55:35;;;;;;;;;;;;;;;42.21;13.28;99919.34;5362742;32;36131;-71
2022/06/30 08:58:38;;;;;;;;;;;;;;;40.90;14.77;99918.13;5369463;32;43770;-83
2022/06/30 09:01:40;;;;;;;;;;;;;;;40.58;15.20;99913.59;5373572;32;35130;-75
2022/06/30 09:04:42;;;;;;;;;;;;;;;41.68;13.87;99905.03;5365721;32;34289;-74
2022/06/30 09:07:44;;;;;;;;;;;;;;;42.51;13.19;99910.13;5375000;32;34089;-76
2022/06/30 09:11:06;;;;;;;;;;;;;;;41.23;14.11;99895.59;5358274;32;36044;-70
2022/06/30 09:14:08;;;;;;;;;;;;;;;42.96;12.83;99894.44;5366156;32;46179;-73
2022/06/30 09:17:12;;;;;;;;;;;;;;;43.36;11.95;99915.50;5352233;32;36560;-80
2022/06/30 09:20:15;;;;;;;;;;;;;;;43.12;12.15;99907.09;5359329;32;34198;-71
2022/06/30 09:23:21;;;;;;;;;;;;;;;43.29;12.29;99915.00;5351936;32;35037;-68
2022/06/30 09:26:23;;;;;;;;;;;;;;;42.53;12.34;99910.69;5361601;32;34286;-74
2022/06/30 09:29:25;;;;;;;;;;;;;;;42.79;12.33;99907.81;5372082;32;35332;-73
2022/06/30 09:32:48;;;;;;;;;;;;;;;43.36;11.68;99909.16;5365228;32;36197;-72
2022/06/30 09:35:51;;;;;;;;;;;;;;;43.46;11.67;99923.72;5367939;32;34263;-85
2022/06/30 09:39:06;;;;;;;;;;;;;;;42.75;11.87;99906.72;5376551;32;34062;-70
2022/06/30 09:42:08;;;;;;;;;;;;;;;42.59;11.82;99900.47;5360353;32;44669;-72
2022/06/30 09:45:11;;;;;;;;;;;;;;;42.36;12.17;99902.72;5377814;32;34370;-68
2022/06/30 09:48:13;;;;;;;;;;;;;;;42.75;10.95;99909.50;5348510;32;34356;-68
2022/06/30 09:51:15;;;;;;;;;;;;;;;42.59;11.14;99889.41;5378002;32;34769;-71
2022/06/30 09:54:18;;;;;;;;;;;;;;;42.89;11.19;99888.41;5363826;32;34420;-69
2022/06/30 09:57:24;;;;;;;;;;;;;;;42.10;12.13;99887.31;5362509;32;34781;-73
2022/06/30 10:00:26;;;;;;;;;;;;;;;42.34;11.94;99893.91;5369571;32;35371;-71
2022/06/30 10:03:28;;;;;;;;;;;;;;;42.84;11.58;99892.03;5363328;32;36092;-81
2022/06/30 10:06:30;;;;;;;;;;;;;;;42.27;12.30;99898.91;5381742;32;35342;-69
2022/06/30 10:09:32;;;;;;;;;;;;;;;42.03;12.12;99878.50;5356715;32;35535;-74
2022/06/30 10:12:34;;;;;;;;;;;;;;;42.61;11.42;99881.66;5377802;32;34237;-71
2022/06/30 10:15:37;;;;;;;;;;;;;;;43.25;11.16;99875.22;5350709;32;35559;-82
2022/06/30 10:18:39;;;;;;;;;;;;;;;43.36;11.34;99854.66;5366295;32;44320;-71
2022/06/30 10:21:42;;;;;;;;;;;;;;;42.42;11.98;99867.62;5378729;32;34460;-73
2022/06/30 10:24:45;;;;;;;;;;;;;;;43.37;11.31;99856.31;5366263;32;35499;-71
2022/06/30 10:27:47;;;;;;;;;;;;;;;41.99;12.59;99871.87;5379880;32;34265;-87
2022/06/30 10:31:00;;;;;;;;;;;;;;;43.75;11.26;99849.06;5372794;32;35757;-76
2022/06/30 10:34:08;;;;;;;;;;;;;;;43.92;11.26;99858.88;5368569;32;34399;-68
2022/06/30 10:37:12;;;;;;;;;;;;;;;42.67;12.21;99837.16;5368190;32;44459;-68
2022/06/30 10:40:19;;;;;;;;;;;;;;;43.61;10.57;99855.59;5363905;32;35440;-71
2022/06/30 10:43:21;;;;;;;;;;;;;;;44.36;10.03;99849.53;5373806;32;36500;-68
2022/06/30 10:46:23;;;;;;;;;;;;;;;44.31;9.96;99848.47;5361550;32;35438;-71
2022/06/30 10:49:26;;;;;;;;;;;;;;;43.91;9.89;99838.66;5374636;32;35431;-76
2022/06/30 10:52:28;;;;;;;;;;;;;;;44.47;9.87;99849.09;5353618;32;35676;-68
2022/06/30 10:55:43;;;;;;;;;;;;;;;44.25;10.36;99848.81;5364179;32;37263;-70
2022/06/30 10:59:04;;;;;;;;;;;;;;;43.93;10.89;99838.41;5374753;32;44709;-72
2022/06/30 11:02:07;;;;;;;;;;;;;;;44.28;10.66;99845.47;5362063;32;46571;-71
2022/06/30 11:05:22;;;;;;;;;;;;;;;46.08;9.04;99823.72;5371338;32;44911;-66
2022/06/30 11:08:37;;;;;;;;;;;;;;;46.44;8.89;99839.69;5367662;32;34242;-77
2022/06/30 11:11:43;;;;;;;;;;;;;;;45.89;9.19;99828.56;5364440;32;44607;-71
2022/06/30 11:14:53;;;;;;;;;;;;;;;45.29;9.60;99822.97;5361338;32;34338;-79
2022/06/30 11:17:55;;;;;;;;;;;;;;;45.09;9.82;99824.13;5349878;32;34248;-84
2022/06/30 11:20:57;;;;;;;;;;;;;;;45.22;9.01;99819.78;5385647;32;35843;-70
2022/06/30 11:24:00;;;;;;;;;;;;;;;44.34;9.98;99791.66;5362160;32;34326;-76
2022/06/30 11:27:18;;;;;;;;;;;;;;;45.01;9.89;99800.66;5369636;32;34269;-79
2022/06/30 11:30:19;;;;;;;;;;;;;;;45.93;9.13;99806.56;5368108;32;34384;-79
2022/06/30 11:33:21;;;;;;;;;;;;;;;44.80;9.99;99804.88;5362921;32;35848;-90
2022/06/30 11:36:24;;;;;;;;;;;;;;;45.45;9.38;99793.03;5375546;32;34252;-64
2022/06/30 11:39:28;;;;;;;;;;;;;;;45.18;9.49;99783.47;5359469;32;34549;-72
2022/06/30 11:42:30;;;;;;;;;;;;;;;45.50;9.29;99782.66;5373372;32;34313;-75
2022/06/30 11:45:32;;;;;;;;;;;;;;;45.96;8.81;99787.31;5363322;32;34402;-79
2022/06/30 11:48:36;;;;;;;;;;;;;;;44.62;9.94;99781.59;5365867;32;35734;-66
2022/06/30 11:51:39;;;;;;;;;;;;;;;45.30;9.48;99783.00;5372816;32;44336;-73
2022/06/30 11:54:42;;;;;;;;;;;;;;;45.82;9.18;99786.50;5366561;32;34363;-76
2022/06/30 11:57:48;;;;;;;;;;;;;;;45.90;9.26;99766.34;5375092;32;35865;-78
2022/06/30 12:00:50;;;;;;;;;;;;;;;45.21;9.65;99776.50;5366415;32;34563;-78
2022/06/30 12:03:52;;;;;;;;;;;;;;;43.46;10.45;99774.38;5378606;32;34134;-66
2022/06/30 12:06:54;;;;;;;;;;;;;;;43.01;11.08;99770.06;5360142;32;34542;-68
2022/06/30 12:09:57;;;;;;;;;;;;;;;41.59;11.82;99761.31;5365290;32;33865;-70
2022/06/30 12:13:00;;;;;;;;;;;;;;;39.94;13.04;99768.75;5376258;32;34167;-72
2022/06/30 12:16:02;;;;;;;;;;;;;;;40.00;12.17;99766.84;5343243;32;34373;-75
2022/06/30 12:19:07;;;;;;;;;;;;;;;39.63;12.45;99769.66;5380400;32;44258;-72
2022/06/30 12:22:09;;;;;;;;;;;;;;;39.03;12.64;99768.88;5368477;32;35106;-74
2022/06/30 12:25:11;;;;;;;;;;;;;;;39.38;12.81;99770.28;5379887;32;35359;-78
2022/06/30 12:28:14;;;;;;;;;;;;;;;39.05;13.14;99771.38;5369041;32;34302;-80
2022/06/30 12:31:23;;;;;;;;;;;;;;;39.00;13.50;99755.69;5366804;32;35415;-81
2022/06/30 12:34:26;;;;;;;;;;;;;;;38.84;13.95;99757.47;5368192;32;34361;-79
2022/06/30 12:37:38;;;;;;;;;;;;;;;39.11;13.59;99753.84;5363655;32;35489;-81
2022/06/30 12:40:40;;;;;;;;;;;;;;;39.35;12.86;99754.31;5381216;32;44146;-69
2022/06/30 12:43:49;;;;;;;;;;;;;;;39.02;12.36;99756.22;5360781;32;35430;-66
2022/06/30 12:46:51;;;;;;;;;;;;;;;38.73;12.62;99753.78;5369460;32;36054;-73
2022/06/30 12:49:53;;;;;;;;;;;;;;;39.34;11.95;99742.50;5375985;32;34352;-66
2022/06/30 12:52:55;;;;;;;;;;;;;;;39.48;12.27;99746.47;5365102;32;34272;-72
2022/06/30 12:56:21;;;;;;;;;;;;;;;39.48;12.08;99754.72;5360323;32;34048;-67
2022/06/30 12:59:24;;;;;;;;;;;;;;;38.73;12.80;99752.97;5359295;32;34335;-82
2022/06/30 13:02:36;;;;;;;;;;;;;;;38.88;12.75;99744.84;5375257;32;34813;-85
2022/06/30 13:05:38;;;;;;;;;;;;;;;38.84;12.96;99738.25;5371660;32;46702;-71
2022/06/30 13:08:43;;;;;;;;;;;;;;;39.11;12.63;99737.38;5363000;32;36009;-68
2022/06/30 13:11:48;;;;;;;;;;;;;;;39.43;12.47;99738.19;5371680;32;34853;-68
2022/06/30 13:14:50;;;;;;;;;;;;;;;39.22;12.24;99736.34;5345681;32;35094;-70
2022/06/30 13:17:52;;;;;;;;;;;;;;;39.36;11.89;99734.00;5367193;32;36270;-68
2022/06/30 13:20:57;;;;;;;;;;;;;;;38.94;12.48;99727.34;5357628;32;34335;-80
2022/06/30 13:23:59;;;;;;;;;;;;;;;38.97;12.89;99715.84;5360405;32;34299;-71
2022/06/30 13:27:04;;;;;;;;;;;;;;;38.95;12.95;99733.66;5374759;32;34766;-74
2022/06/30 13:30:07;;;;;;;;;;;;;;;38.78;13.03;99727.47;5363335;32;34295;-67
2022/06/30 13:33:08;;;;;;;;;;;;;;;38.97;12.94;99731.50;5372836;32;44611;-86
2022/06/30 13:36:11;;;;;;;;;;;;;;;38.36;12.84;99726.22;5364707;32;33658;-73
2022/06/30 13:39:13;;;;;;;;;;;;;;;37.50;13.85;99720.44;5372096;32;35652;-82
2022/06/30 13:42:15;;;;;;;;;;;;;;;37.90;13.95;99733.06;5359107;32;34217;-65
2022/06/30 13:45:17;;;;;;;;;;;;;;;38.66;13.52;99722.94;5369176;32;35432;-82
2022/06/30 13:48:19;;;;;;;;;;;;;;;38.81;13.73;99718.72;5362171;32;35331;-68
2022/06/30 13:51:22;;;;;;;;;;;;;;;38.63;14.20;99717.13;5359484;32;35529;-68
2022/06/30 13:54:24;;;;;;;;;;;;;;;38.53;14.05;99722.53;5377026;32;36480;-76
2022/06/30 13:57:26;;;;;;;;;;;;;;;38.72;13.61;99721.94;5353432;32;36959;-71
2022/06/30 14:00:28;;;;;;;;;;;;;;;38.38;14.07;99724.03;5365862;32;36526;-71
2022/06/30 14:03:30;;;;;;;;;;;;;;;38.77;14.03;99714.81;5350787;32;36799;-83
2022/06/30 14:06:32;;;;;;;;;;;;;;;38.72;14.45;99718.37;5356700;32;33373;-81
2022/06/30 14:09:34;;;;;;;;;;;;;;;38.47;15.09;99722.50;5367451;32;34575;-72
2022/06/30 14:12:36;;;;;;;;;;;;;;;38.06;15.66;99698.38;5360508;32;34763;-81
2022/06/30 14:15:38;;;;;;;;;;;;;;;37.73;15.75;99718.53;5355811;32;44610;-81
2022/06/30 14:18:41;;;;;;;;;;;;;;;38.19;15.01;99717.19;5363389;32;34336;-73
2022/06/30 14:21:44;;;;;;;;;;;;;;;38.42;14.76;99716.94;5376147;32;36793;-72
2022/06/30 14:24:46;;;;;;;;;;;;;;;38.91;14.09;99721.56;5365845;32;35982;-82
2022/06/30 14:27:48;;;;;;;;;;;;;;;38.72;14.55;99708.22;5360153;32;35921;-79
2022/06/30 14:30:50;;;;;;;;;;;;;;;38.70;15.00;99713.06;5384593;32;35591;-84
2022/06/30 14:33:52;;;;;;;;;;;;;;;38.60;15.31;99710.25;5360511;32;35520;-83
2022/06/30 14:36:54;;;;;;;;;;;;;;;38.30;16.05;99712.69;5377621;32;35655;-86
2022/06/30 14:39:56;;;;;;;;;;;;;;;38.26;16.03;99703.31;5362549;32;35523;-79
2022/06/30 14:42:59;;;;;;;;;;;;;;;38.55;15.97;99704.72;5361885;32;34358;-82
2022/06/30 14:46:01;;;;;;;;;;;;;;;38.50;16.19;99704.66;5367431;32;35382;-72
2022/06/30 14:49:04;;;;;;;;;;;;;;;38.74;15.91;99695.03;5360629;32;34298;-72
2022/06/30 14:52:16;;;;;;;;;;;;;;;38.91;15.68;99699.56;5376583;32;44328;-72
2022/06/30 14:55:18;;;;;;;;;;;;;;;37.97;17.07;99694.47;5362841;32;34563;-72
2022/06/30 14:58:20;;;;;;;;;;;;;;;37.94;17.09;99693.91;5375881;32;35158;-70
2022/06/30 15:01:22;;;;;;;;;;;;;;;38.85;16.39;99692.38;5365278;32;34919;-74
2022/06/30 15:04:25;;;;;;;;;;;;;;;38.63;17.32;99692.44;5370562;32;34182;-82
2022/06/30 15:07:27;;;;;;;;;;;;;;;38.31;17.85;99690.47;5374226;32;35366;-71
2022/06/30 15:10:29;;;;;;;;;;;;;;;38.24;17.86;99681.59;5354429;32;36818;-72
2022/06/30 15:13:31;;;;;;;;;;;;;;;37.66;18.40;99685.81;5379933;32;34718;-84
2022/06/30 15:16:33;;;;;;;;;;;;;;;37.80;18.56;99686.28;5339487;32;35259;-83
2022/06/30 15:19:35;;;;;;;;;;;;;;;37.93;18.30;99678.50;5378501;32;35315;-71
2022/06/30 15:25:58;;;;;;;;;;;;;;;38.68;17.81;99685.06;5365531;32;34233;-71
2022/06/30 15:29:00;;;;;;;;;;;;;;;37.69;18.76;99674.34;5380227;32;34796;-83
2022/06/30 15:32:04;;;;;;;;;;;;;;;38.21;18.21;99666.47;5360064;32;35144;-71
2022/06/30 15:35:06;;;;;;;;;;;;;;;37.83;18.86;99674.81;5379612;32;35264;-82
2022/06/30 15:38:09;;;;;;;;;;;;;;;38.17;18.68;99668.06;5365397;32;44637;-83
2022/06/30 15:41:11;;;;;;;;;;;;;;;37.60;19.50;99665.72;5378262;32;34637;-83
2022/06/30 15:44:13;;;;;;;;;;;;;;;38.40;18.72;99661.47;5368419;32;34843;-84
2022/06/30 15:47:15;;;;;;;;;;;;;;;38.35;19.12;99663.34;5361114;32;34689;-72
2022/06/30 15:50:18;;;;;;;;;;;;;;;36.94;20.89;99670.22;5380635;32;34588;-74
2022/06/30 15:53:20;;;;;;;;;;;;;;;38.07;19.52;99662.50;5363031;32;35158;-85
2022/06/30 15:56:22;;;;;;;;;;;;;;;38.14;19.38;99659.53;5380282;32;35880;-71
2022/06/30 15:59:25;;;;;;;;;;;;;;;36.80;20.79;99666.97;5363544;32;35743;-71
2022/06/30 16:02:27;;;;;;;;;;;;;;;37.57;21.17;99659.94;5375801;32;34326;-71
2022/06/30 16:05:29;;;;;;;;;;;;;;;37.55;22.06;99660.19;5366238;32;35166;-83
2022/06/30 16:08:31;;;;;;;;;;;;;;;37.87;21.87;99667.72;5366761;32;34890;-71
2022/06/30 16:11:34;;;;;;;;;;;;;;;37.58;21.72;99658.84;5377639;32;35697;-87
2022/06/30 16:14:36;;;;;;;;;;;;;;;37.26;22.34;99664.13;5350652;32;35398;-72
2022/06/30 16:17:37;;;;;;;;;;;;;;;37.45;22.25;99662.78;5372365;32;45376;-84